Weather at Bolzano Airport

Public forecast

Using degrees Celsius for public forecast. Weather courtesy of forecast.io.

Current aviation weather report (METAR) for Bolzano Airport

Retrieved 2020/11/25 06:50 UTC (31 minutes ago):

LIPB 250650Z VRB02KT CAVOK M04/M04 Q1026 RMK MON LIB

Aviation forecast (TAF) for Bolzano Airport

Retrieved 2020/11/25 06:21 UTC (60 minutes ago):

TAF LIPB 250500Z 2506/2606 VRB05KT 9999 SCT060